< < Back
Terminal Aerodrome Forecast


Current Version              Previous Versions:   1  2  3  4  5  6  7  8  9  

Terminal Aerodrome Forecast

325
FTUS42 KTAE 030947 AAB
TAFTLH
TAF AMD
KTLH 030947Z 0310/0406 00000KT 1SM BR BKN005
      TEMPO 0310/0313 1/2SM FG VV002
     FM031500 24007KT P6SM BKN040
     FM031800 24008KT 5SM TSRA BKN035CB
     FM040300 26003KT P6SM OVC025=

Latest METAR

556
SAUS80 KWBC 031200
MTRTLH
METAR KTLH 031153Z 26004KT 1/4SM FG VV002 22/21 A2994 RMK AO2 SFC VIS
1/2 SLP136 T02220211 10222 20200 53010


USA.gov is the U.S. government's official web portal to all federal, state and local government web resources and services.